sensor_id;sensor_type;location;lat;lon;timestamp;pressure;altitude;pressure_sealevel;temperature;humidity
29569;BME280;16501;51.462;14.346;2023-12-07T00:02:07;100307.88;;;0.25;100.00
29569;BME280;16501;51.462;14.346;2023-12-07T00:04:33;100297.66;;;0.18;100.00
29569;BME280;16501;51.462;14.346;2023-12-07T00:06:58;100300.44;;;0.18;100.00
29569;BME280;16501;51.462;14.346;2023-12-07T00:09:23;100316.19;;;0.21;100.00
29569;BME280;16501;51.462;14.346;2023-12-07T00:11:49;100305.16;;;0.17;100.00
29569;BME280;16501;51.462;14.346;2023-12-07T00:14:14;100305.53;;;0.20;100.00
29569;BME280;16501;51.462;14.346;2023-12-07T00:16:40;100315.31;;;0.35;100.00
29569;BME280;16501;51.462;14.346;2023-12-07T00:19:05;100314.56;;;0.27;100.00
29569;BME280;16501;51.462;14.346;2023-12-07T00:21:30;100304.72;;;0.23;100.00
29569;BME280;16501;51.462;14.346;2023-12-07T00:23:56;100315.34;;;0.28;100.00
29569;BME280;16501;51.462;14.346;2023-12-07T00:26:21;100301.19;;;0.18;100.00
29569;BME280;16501;51.462;14.346;2023-12-07T00:28:46;100285.09;;;0.06;100.00
29569;BME280;16501;51.462;14.346;2023-12-07T00:31:11;100326.78;;;0.30;100.00
29569;BME280;16501;51.462;14.346;2023-12-07T00:33:37;100307.50;;;0.19;100.00
29569;BME280;16501;51.462;14.346;2023-12-07T00:36:02;100329.91;;;0.32;100.00
29569;BME280;16501;51.462;14.346;2023-12-07T00:38:28;100326.78;;;0.26;100.00
29569;BME280;16501;51.462;14.346;2023-12-07T00:40:54;100313.44;;;0.17;100.00
29569;BME280;16501;51.462;14.346;2023-12-07T00:43:19;100323.25;;;0.22;100.00
29569;BME280;16501;51.462;14.346;2023-12-07T00:45:44;100331.88;;;0.31;100.00
29569;BME280;16501;51.462;14.346;2023-12-07T00:48:10;100330.31;;;0.27;100.00
29569;BME280;16501;51.462;14.346;2023-12-07T00:50:35;100302.00;;;0.15;100.00
29569;BME280;16501;51.462;14.346;2023-12-07T00:53:00;100335.44;;;0.32;100.00
29569;BME280;16501;51.462;14.346;2023-12-07T00:55:25;100313.81;;;0.20;100.00
29569;BME280;16501;51.462;14.346;2023-12-07T00:57:51;100311.81;;;0.24;100.00
29569;BME280;16501;51.462;14.346;2023-12-07T01:00:16;100322.03;;;0.30;100.00
29569;BME280;16501;51.462;14.346;2023-12-07T01:02:41;100336.56;;;0.38;100.00
29569;BME280;16501;51.462;14.346;2023-12-07T01:05:07;100303.97;;;0.15;100.00
29569;BME280;16501;51.462;14.346;2023-12-07T01:07:33;100344.47;;;0.36;100.00
29569;BME280;16501;51.462;14.346;2023-12-07T01:09:59;100350.78;;;0.33;100.00
29569;BME280;16501;51.462;14.346;2023-12-07T01:12:24;100346.84;;;0.34;100.00
29569;BME280;16501;51.462;14.346;2023-12-07T01:14:50;100347.63;;;0.31;100.00
29569;BME280;16501;51.462;14.346;2023-12-07T01:17:15;100338.59;;;0.27;100.00
29569;BME280;16501;51.462;14.346;2023-12-07T01:19:40;100354.72;;;0.35;100.00
29569;BME280;16501;51.462;14.346;2023-12-07T01:22:05;100338.22;;;0.25;100.00
29569;BME280;16501;51.462;14.346;2023-12-07T01:24:30;100345.31;;;0.18;100.00
29569;BME280;16501;51.462;14.346;2023-12-07T01:26:56;100335.47;;;0.25;100.00
29569;BME280;16501;51.462;14.346;2023-12-07T01:29:21;100339.78;;;0.26;100.00
29569;BME280;16501;51.462;14.346;2023-12-07T01:31:46;100348.41;;;0.31;100.00
29569;BME280;16501;51.462;14.346;2023-12-07T01:34:12;100355.50;;;0.36;100.00
29569;BME280;16501;51.462;14.346;2023-12-07T01:36:37;100343.75;;;0.25;100.00
29569;BME280;16501;51.462;14.346;2023-12-07T01:39:02;100349.63;;;0.27;100.00
29569;BME280;16501;51.462;14.346;2023-12-07T01:41:28;100361.41;;;0.34;100.00
29569;BME280;16501;51.462;14.346;2023-12-07T01:43:53;100342.16;;;0.24;100.00
29569;BME280;16501;51.462;14.346;2023-12-07T01:46:19;100346.13;;;0.15;100.00
29569;BME280;16501;51.462;14.346;2023-12-07T01:48:44;100358.69;;;0.27;100.00
29569;BME280;16501;51.462;14.346;2023-12-07T01:51:14;100341.00;;;0.17;100.00
29569;BME280;16501;51.462;14.346;2023-12-07T01:53:39;100338.66;;;0.12;100.00
29569;BME280;16501;51.462;14.346;2023-12-07T01:56:05;100362.22;;;0.28;100.00
29569;BME280;16501;51.462;14.346;2023-12-07T01:58:32;100351.63;;;0.19;100.00
29569;BME280;16501;51.462;14.346;2023-12-07T02:00:58;100352.03;;;0.17;100.00
29569;BME280;16501;51.462;14.346;2023-12-07T02:03:23;100361.91;;;0.08;100.00
29569;BME280;16501;51.462;14.346;2023-12-07T02:05:48;100372.50;;;0.24;100.00
29569;BME280;16501;51.462;14.346;2023-12-07T02:08:14;100382.38;;;0.17;100.00
29569;BME280;16501;51.462;14.346;2023-12-07T02:10:40;100356.06;;;-0.05;100.00
29569;BME280;16501;51.462;14.346;2023-12-07T02:13:05;100378.44;;;0.11;100.00
29569;BME280;16501;51.462;14.346;2023-12-07T02:15:31;100395.72;;;0.19;100.00
29569;BME280;16501;51.462;14.346;2023-12-07T02:18:05;100381.97;;;0.15;100.00
29569;BME280;16501;51.462;14.346;2023-12-07T02:20:37;100374.50;;;0.05;100.00
29569;BME280;16501;51.462;14.346;2023-12-07T02:23:07;100391.44;;;0.11;100.00
29569;BME280;16501;51.462;14.346;2023-12-07T02:25:52;100378.84;;;0.03;100.00
29569;BME280;16501;51.462;14.346;2023-12-07T02:28:18;100391.81;;;0.13;100.00
29569;BME280;16501;51.462;14.346;2023-12-07T02:30:43;100377.69;;;0.04;100.00
29569;BME280;16501;51.462;14.346;2023-12-07T02:33:09;100386.31;;;0.09;100.00
29569;BME280;16501;51.462;14.346;2023-12-07T02:35:36;100394.59;;;0.13;100.00
29569;BME280;16501;51.462;14.346;2023-12-07T02:38:02;100405.22;;;0.14;100.00
29569;BME280;16501;51.462;14.346;2023-12-07T02:40:28;100363.16;;;-0.18;100.00
29569;BME280;16501;51.462;14.346;2023-12-07T02:42:54;100401.28;;;0.12;100.00
29569;BME280;16501;51.462;14.346;2023-12-07T02:45:20;100388.72;;;0.00;100.00
29569;BME280;16501;51.462;14.346;2023-12-07T02:47:45;100399.72;;;0.11;100.00
29569;BME280;16501;51.462;14.346;2023-12-07T02:50:11;100400.13;;;0.09;100.00
29569;BME280;16501;51.462;14.346;2023-12-07T02:52:37;100386.75;;;0.01;100.00
29569;BME280;16501;51.462;14.346;2023-12-07T02:55:03;100409.16;;;0.06;100.00
29569;BME280;16501;51.462;14.346;2023-12-07T02:57:29;100413.50;;;0.07;100.00
29569;BME280;16501;51.462;14.346;2023-12-07T02:59:55;100421.41;;;0.09;100.00
29569;BME280;16501;51.462;14.346;2023-12-07T03:02:21;100408.38;;;0.09;100.00
29569;BME280;16501;51.462;14.346;2023-12-07T03:04:46;100412.31;;;0.08;100.00
29569;BME280;16501;51.462;14.346;2023-12-07T03:07:12;100420.97;;;0.17;100.00
29569;BME280;16501;51.462;14.346;2023-12-07T03:09:37;100417.81;;;0.12;100.00
29569;BME280;16501;51.462;14.346;2023-12-07T03:12:02;100427.66;;;0.16;100.00
29569;BME280;16501;51.462;14.346;2023-12-07T03:14:28;100392.66;;;-0.08;100.00
29569;BME280;16501;51.462;14.346;2023-12-07T03:16:55;100423.75;;;0.17;100.00
29569;BME280;16501;51.462;14.346;2023-12-07T03:19:21;100417.03;;;0.11;100.00
29569;BME280;16501;51.462;14.346;2023-12-07T03:21:46;100416.69;;;0.02;100.00
29569;BME280;16501;51.462;14.346;2023-12-07T03:24:11;100411.56;;;-0.03;100.00
29569;BME280;16501;51.462;14.346;2023-12-07T03:26:37;100426.91;;;0.12;100.00
29569;BME280;16501;51.462;14.346;2023-12-07T03:29:02;100413.53;;;0.00;100.00
29569;BME280;16501;51.462;14.346;2023-12-07T03:31:28;100443.03;;;0.14;100.00
29569;BME280;16501;51.462;14.346;2023-12-07T03:33:54;100439.50;;;0.10;100.00
29569;BME280;16501;51.462;14.346;2023-12-07T03:36:20;100433.59;;;0.11;100.00
29569;BME280;16501;51.462;14.346;2023-12-07T03:38:45;100428.47;;;0.03;100.00
29569;BME280;16501;51.462;14.346;2023-12-07T03:41:10;100431.25;;;-0.01;100.00
29569;BME280;16501;51.462;14.346;2023-12-07T03:43:35;100441.09;;;0.04;100.00
29569;BME280;16501;51.462;14.346;2023-12-07T03:46:04;100442.63;;;0.19;100.00
29569;BME280;16501;51.462;14.346;2023-12-07T03:48:30;100437.94;;;0.12;100.00
29569;BME280;16501;51.462;14.346;2023-12-07T03:50:55;100430.03;;;0.11;100.00
29569;BME280;16501;51.462;14.346;2023-12-07T03:53:20;100413.91;;;0.02;100.00
29569;BME280;16501;51.462;14.346;2023-12-07T03:55:45;100439.47;;;0.21;100.00
29569;BME280;16501;51.462;14.346;2023-12-07T03:58:11;100450.91;;;0.26;100.00
29569;BME280;16501;51.462;14.346;2023-12-07T04:00:38;100420.97;;;0.10;100.00
29569;BME280;16501;51.462;14.346;2023-12-07T04:03:03;100433.94;;;0.21;100.00
29569;BME280;16501;51.462;14.346;2023-12-07T04:05:29;100441.44;;;0.24;100.00
29569;BME280;16501;51.462;14.346;2023-12-07T04:07:54;100424.91;;;0.16;100.00
29569;BME280;16501;51.462;14.346;2023-12-07T04:10:19;100439.06;;;0.26;100.00
29569;BME280;16501;51.462;14.346;2023-12-07T04:12:44;100392.66;;;-0.08;100.00
29569;BME280;16501;51.462;14.346;2023-12-07T04:15:10;100446.16;;;0.27;100.00
29569;BME280;16501;51.462;14.346;2023-12-07T04:17:35;100450.13;;;0.11;100.00
29569;BME280;16501;51.462;14.346;2023-12-07T04:20:00;100454.84;;;0.14;100.00
29569;BME280;16501;51.462;14.346;2023-12-07T04:22:26;100450.50;;;0.13;100.00
29569;BME280;16501;51.462;14.346;2023-12-07T04:24:56;100441.84;;;0.15;100.00
29569;BME280;16501;51.462;14.346;2023-12-07T04:27:22;100443.03;;;0.21;100.00
29569;BME280;16501;51.462;14.346;2023-12-07T04:29:47;100451.69;;;0.27;100.00
29569;BME280;16501;51.462;14.346;2023-12-07T04:32:12;100448.53;;;0.25;100.00
29569;BME280;16501;51.462;14.346;2023-12-07T04:34:37;100460.72;;;0.34;100.00
29569;BME280;16501;51.462;14.346;2023-12-07T04:37:03;100470.94;;;0.41;100.00
29569;BME280;16501;51.462;14.346;2023-12-07T04:39:28;100466.63;;;0.40;100.00
29569;BME280;16501;51.462;14.346;2023-12-07T04:41:54;100466.63;;;0.40;100.00
29569;BME280;16501;51.462;14.346;2023-12-07T04:44:19;100465.06;;;0.35;100.00
29569;BME280;16501;51.462;14.346;2023-12-07T04:46:44;100474.91;;;0.40;100.00
29569;BME280;16501;51.462;14.346;2023-12-07T04:49:09;100468.22;;;0.30;100.00
29569;BME280;16501;51.462;14.346;2023-12-07T04:51:35;100460.31;;;0.32;100.00
29569;BME280;16501;51.462;14.346;2023-12-07T04:54:00;100439.84;;;0.23;100.00
29569;BME280;16501;51.462;14.346;2023-12-07T04:56:25;100475.66;;;0.44;100.00
29569;BME280;16501;51.462;14.346;2023-12-07T04:58:51;100462.31;;;0.32;100.00
29569;BME280;16501;51.462;14.346;2023-12-07T05:01:16;100494.59;;;0.42;100.00
29569;BME280;16501;51.462;14.346;2023-12-07T05:03:41;100488.69;;;0.36;100.00
29569;BME280;16501;51.462;14.346;2023-12-07T05:06:06;100469.00;;;0.27;100.00
29569;BME280;16501;51.462;14.346;2023-12-07T05:08:33;100481.25;;;0.26;100.00
29569;BME280;16501;51.462;14.346;2023-12-07T05:10:58;100489.91;;;0.28;100.00
29569;BME280;16501;51.462;14.346;2023-12-07T05:13:23;100498.91;;;0.40;100.00
29569;BME280;16501;51.462;14.346;2023-12-07T05:15:49;100489.09;;;0.28;100.00
29569;BME280;16501;51.462;14.346;2023-12-07T05:18:16;100495.00;;;0.33;100.00
29569;BME280;16501;51.462;14.346;2023-12-07T05:20:41;100496.19;;;0.32;100.00
29569;BME280;16501;51.462;14.346;2023-12-07T05:23:08;100497.38;;;0.39;100.00
29569;BME280;16501;51.462;14.346;2023-12-07T05:25:33;100500.13;;;0.42;100.00
29569;BME280;16501;51.462;14.346;2023-12-07T05:27:58;100509.19;;;0.35;100.00
29569;BME280;16501;51.462;14.346;2023-12-07T05:30:23;100498.94;;;0.36;100.00
29569;BME280;16501;51.462;14.346;2023-12-07T05:32:49;100500.13;;;0.35;100.00
29569;BME280;16501;51.462;14.346;2023-12-07T05:35:15;100504.44;;;0.40;100.00
29569;BME280;16501;51.462;14.346;2023-12-07T05:37:40;100488.69;;;0.26;100.00
29569;BME280;16501;51.462;14.346;2023-12-07T05:40:06;100509.19;;;0.39;100.00
29569;BME280;16501;51.462;14.346;2023-12-07T05:42:32;100502.09;;;0.34;100.00
29569;BME280;16501;51.462;14.346;2023-12-07T05:44:58;100509.97;;;0.36;100.00
29569;BME280;16501;51.462;14.346;2023-12-07T05:47:23;100517.84;;;0.41;100.00
29569;BME280;16501;51.462;14.346;2023-12-07T05:49:48;100501.69;;;0.32;100.00
29569;BME280;16501;51.462;14.346;2023-12-07T05:52:13;100466.28;;;0.13;100.00
29569;BME280;16501;51.462;14.346;2023-12-07T05:54:39;100499.34;;;0.31;100.00
29569;BME280;16501;51.462;14.346;2023-12-07T05:57:07;100515.47;;;0.47;100.00
29569;BME280;16501;51.462;14.346;2023-12-07T05:59:36;100509.19;;;0.28;100.00
29569;BME280;16501;51.462;14.346;2023-12-07T06:02:02;100501.69;;;0.32;100.00
29569;BME280;16501;51.462;14.346;2023-12-07T06:04:27;100530.06;;;0.47;100.00
29569;BME280;16501;51.462;14.346;2023-12-07T06:06:52;100529.25;;;0.43;100.00
29569;BME280;16501;51.462;14.346;2023-12-07T06:09:18;100519.03;;;0.36;100.00
29569;BME280;16501;51.462;14.346;2023-12-07T06:11:43;100532.81;;;0.47;100.00
29569;BME280;16501;51.462;14.346;2023-12-07T06:14:08;100522.19;;;0.42;100.00
29569;BME280;16501;51.462;14.346;2023-12-07T06:16:33;100530.44;;;0.46;100.00
29569;BME280;16501;51.462;14.346;2023-12-07T06:18:59;100531.59;;;0.52;100.00
29569;BME280;16501;51.462;14.346;2023-12-07T06:21:24;100530.44;;;0.49;100.00
29569;BME280;16501;51.462;14.346;2023-12-07T06:23:50;100520.22;;;0.39;100.00
29569;BME280;16501;51.462;14.346;2023-12-07T06:26:16;100523.75;;;0.43;100.00
29569;BME280;16501;51.462;14.346;2023-12-07T06:28:41;100508.41;;;0.42;100.00
29569;BME280;16501;51.462;14.346;2023-12-07T06:31:07;100527.28;;;0.54;100.00
29569;BME280;16501;51.462;14.346;2023-12-07T06:33:33;100531.22;;;0.53;100.00
29569;BME280;16501;51.462;14.346;2023-12-07T06:36:00;100533.59;;;0.48;100.00
29569;BME280;16501;51.462;14.346;2023-12-07T06:38:25;100487.16;;;0.10;100.00
29569;BME280;16501;51.462;14.346;2023-12-07T06:40:50;100519.03;;;0.33;100.00
29569;BME280;16501;51.462;14.346;2023-12-07T06:43:15;100527.28;;;0.36;100.00
29569;BME280;16501;51.462;14.346;2023-12-07T06:45:41;100519.03;;;0.33;100.00
29569;BME280;16501;51.462;14.346;2023-12-07T06:48:06;100543.88;;;0.40;100.00
29569;BME280;16501;51.462;14.346;2023-12-07T06:50:31;100528.88;;;0.34;100.00
29569;BME280;16501;51.462;14.346;2023-12-07T06:52:57;100528.50;;;0.35;100.00
29569;BME280;16501;51.462;14.346;2023-12-07T06:55:22;100523.38;;;0.30;100.00
29569;BME280;16501;51.462;14.346;2023-12-07T06:57:47;100543.84;;;0.47;100.00
29569;BME280;16501;51.462;14.346;2023-12-07T07:00:13;100554.09;;;0.43;100.00
29569;BME280;16501;51.462;14.346;2023-12-07T07:02:38;100554.91;;;0.44;100.00
29569;BME280;16501;51.462;14.346;2023-12-07T07:05:04;100544.66;;;0.41;100.00
29569;BME280;16501;51.462;14.346;2023-12-07T07:07:38;100541.50;;;0.42;100.00
29569;BME280;16501;51.462;14.346;2023-12-07T07:10:04;100539.13;;;0.44;100.00
29569;BME280;16501;51.462;14.346;2023-12-07T07:12:30;100552.13;;;0.47;100.00
29569;BME280;16501;51.462;14.346;2023-12-07T07:14:55;100548.97;;;0.49;100.00
29569;BME280;16501;51.462;14.346;2023-12-07T07:17:20;100549.38;;;0.47;100.00
29569;BME280;16501;51.462;14.346;2023-12-07T07:19:46;100535.59;;;0.40;100.00
29569;BME280;16501;51.462;14.346;2023-12-07T07:22:11;100543.88;;;0.40;100.00
29569;BME280;16501;51.462;14.346;2023-12-07T07:24:36;100546.22;;;0.42;100.00
29569;BME280;16501;51.462;14.346;2023-12-07T07:27:01;100559.59;;;0.43;100.00
29569;BME280;16501;51.462;14.346;2023-12-07T07:29:27;100565.94;;;0.47;100.00
29569;BME280;16501;51.462;14.346;2023-12-07T07:31:53;100570.63;;;0.47;100.00
29569;BME280;16501;51.462;14.346;2023-12-07T07:34:18;100562.75;;;0.45;100.00
29569;BME280;16501;51.462;14.346;2023-12-07T07:36:43;100545.03;;;0.35;100.00
29569;BME280;16501;51.462;14.346;2023-12-07T07:39:09;100543.84;;;0.36;100.00
29569;BME280;16501;51.462;14.346;2023-12-07T07:41:35;100558.41;;;0.51;100.00
29569;BME280;16501;51.462;14.346;2023-12-07T07:44:01;100535.19;;;0.27;100.00
29569;BME280;16501;51.462;14.346;2023-12-07T07:46:27;100541.88;;;0.44;100.00
29569;BME280;16501;51.462;14.346;2023-12-07T07:48:52;100541.50;;;0.46;100.00
29569;BME280;16501;51.462;14.346;2023-12-07T07:51:17;100551.31;;;0.58;100.00
29569;BME280;16501;51.462;14.346;2023-12-07T07:53:43;100535.16;;;0.45;100.00
29569;BME280;16501;51.462;14.346;2023-12-07T07:56:08;100553.69;;;0.55;100.00
29569;BME280;16501;51.462;14.346;2023-12-07T07:58:36;100552.50;;;0.60;100.00
29569;BME280;16501;51.462;14.346;2023-12-07T08:01:01;100558.78;;;0.61;100.00
29569;BME280;16501;51.462;14.346;2023-12-07T08:03:27;100557.63;;;0.62;100.00
29569;BME280;16501;51.462;14.346;2023-12-07T08:05:52;100558.03;;;0.56;100.00
29569;BME280;16501;51.462;14.346;2023-12-07T08:08:17;100560.38;;;0.58;100.00
29569;BME280;16501;51.462;14.346;2023-12-07T08:10:42;100541.88;;;0.48;100.00
29569;BME280;16501;51.462;14.346;2023-12-07T08:13:08;100540.69;;;0.45;100.00
29569;BME280;16501;51.462;14.346;2023-12-07T08:15:33;100548.97;;;0.52;100.00
29569;BME280;16501;51.462;14.346;2023-12-07T08:17:59;100562.34;;;0.61;100.00
29569;BME280;16501;51.462;14.346;2023-12-07T08:20:24;100560.00;;;0.56;100.00
29569;BME280;16501;51.462;14.346;2023-12-07T08:22:50;100548.53;;;0.54;100.00
29569;BME280;16501;51.462;14.346;2023-12-07T08:25:15;100550.91;;;0.59;100.00
29569;BME280;16501;51.462;14.346;2023-12-07T08:27:42;100558.38;;;0.66;100.00
29569;BME280;16501;51.462;14.346;2023-12-07T08:30:09;100545.81;;;0.58;100.00
29569;BME280;16501;51.462;14.346;2023-12-07T08:32:35;100555.63;;;0.62;100.00
29569;BME280;16501;51.462;14.346;2023-12-07T08:35:01;100566.66;;;0.66;100.00
29569;BME280;16501;51.462;14.346;2023-12-07T08:37:26;100555.66;;;0.59;100.00
29569;BME280;16501;51.462;14.346;2023-12-07T08:39:51;100564.31;;;0.64;100.00
29569;BME280;16501;51.462;14.346;2023-12-07T08:42:16;100552.50;;;0.53;100.00
29569;BME280;16501;51.462;14.346;2023-12-07T08:44:43;100554.88;;;0.51;100.00
29569;BME280;16501;51.462;14.346;2023-12-07T08:47:08;100560.00;;;0.52;100.00
29569;BME280;16501;51.462;14.346;2023-12-07T08:49:34;100567.06;;;0.61;100.00
29569;BME280;16501;51.462;14.346;2023-12-07T08:52:00;100568.25;;;0.63;100.00
29569;BME280;16501;51.462;14.346;2023-12-07T08:54:25;100543.84;;;0.36;100.00
29569;BME280;16501;51.462;14.346;2023-12-07T08:56:51;100584.41;;;0.68;100.00
29569;BME280;16501;51.462;14.346;2023-12-07T08:59:16;100587.56;;;0.70;100.00
29569;BME280;16501;51.462;14.346;2023-12-07T09:01:42;100577.72;;;0.62;100.00
29569;BME280;16501;51.462;14.346;2023-12-07T09:04:07;100591.88;;;0.71;100.00
29569;BME280;16501;51.462;14.346;2023-12-07T09:06:32;100591.50;;;0.69;100.00
29569;BME280;16501;51.462;14.346;2023-12-07T09:08:57;100584.81;;;0.63;100.00
29569;BME280;16501;51.462;14.346;2023-12-07T09:11:23;100608.06;;;0.69;100.00
29569;BME280;16501;51.462;14.346;2023-12-07T09:13:48;100602.13;;;0.74;100.00
29569;BME280;16501;51.462;14.346;2023-12-07T09:16:14;100580.88;;;0.61;100.00
29569;BME280;16501;51.462;14.346;2023-12-07T09:18:41;100607.66;;;0.78;100.00
29569;BME280;16501;51.462;14.346;2023-12-07T09:21:06;100600.19;;;0.79;100.00
29569;BME280;16501;51.462;14.346;2023-12-07T09:23:31;100596.63;;;0.74;100.00
29569;BME280;16501;51.462;14.346;2023-12-07T09:25:57;100587.16;;;0.72;100.00
29569;BME280;16501;51.462;14.346;2023-12-07T09:28:22;100596.59;;;0.78;100.00
29569;BME280;16501;51.462;14.346;2023-12-07T09:30:47;100579.28;;;0.67;100.00
29569;BME280;16501;51.462;14.346;2023-12-07T09:33:13;100602.53;;;0.87;100.00
29569;BME280;16501;51.462;14.346;2023-12-07T09:35:38;100608.06;;;0.84;100.00
29569;BME280;16501;51.462;14.346;2023-12-07T09:38:04;100601.31;;;0.85;100.00
29569;BME280;16501;51.462;14.346;2023-12-07T09:40:30;100581.63;;;0.79;100.00
29569;BME280;16501;51.462;14.346;2023-12-07T09:42:55;100603.69;;;0.86;100.00
29569;BME280;16501;51.462;14.346;2023-12-07T09:45:21;100580.84;;;0.79;100.00
29569;BME280;16501;51.462;14.346;2023-12-07T09:47:48;100574.91;;;0.77;100.00
29569;BME280;16501;51.462;14.346;2023-12-07T09:50:16;100577.28;;;0.74;100.00
29569;BME280;16501;51.462;14.346;2023-12-07T09:52:43;100611.56;;;0.95;100.00
29569;BME280;16501;51.462;14.346;2023-12-07T09:55:09;100605.56;;;1.18;100.00
29569;BME280;16501;51.462;14.346;2023-12-07T09:57:36;100590.63;;;1.12;100.00
29569;BME280;16501;51.462;14.346;2023-12-07T10:00:02;100596.56;;;1.03;100.00
29569;BME280;16501;51.462;14.346;2023-12-07T10:02:27;100602.47;;;1.02;100.00
29569;BME280;16501;51.462;14.346;2023-12-07T10:05:06;100616.28;;;1.05;100.00
29569;BME280;16501;51.462;14.346;2023-12-07T10:07:33;100602.13;;;0.92;100.00
29569;BME280;16501;51.462;14.346;2023-12-07T10:09:59;100608.81;;;0.95;100.00
29569;BME280;16501;51.462;14.346;2023-12-07T10:12:25;100613.50;;;1.05;100.00
29569;BME280;16501;51.462;14.346;2023-12-07T10:14:50;100597.38;;;0.97;100.00
29569;BME280;16501;51.462;14.346;2023-12-07T10:17:15;100575.72;;;0.81;100.00
29569;BME280;16501;51.462;14.346;2023-12-07T10:19:40;100607.22;;;1.05;100.00
29569;BME280;16501;51.462;14.346;2023-12-07T10:22:13;100590.66;;;0.98;100.00
29569;BME280;16501;51.462;14.346;2023-12-07T10:24:38;100598.94;;;1.05;100.00
29569;BME280;16501;51.462;14.346;2023-12-07T10:27:04;100590.25;;;0.99;100.00
29569;BME280;16501;51.462;14.346;2023-12-07T10:29:35;100596.56;;;1.00;100.00
29569;BME280;16501;51.462;14.346;2023-12-07T10:32:04;100597.75;;;0.99;100.00
29569;BME280;16501;51.462;14.346;2023-12-07T10:34:30;100605.25;;;0.94;100.00
29569;BME280;16501;51.462;14.346;2023-12-07T10:36:56;100572.19;;;0.80;100.00
29569;BME280;16501;51.462;14.346;2023-12-07T10:39:23;100607.22;;;1.01;100.00
29569;BME280;16501;51.462;14.346;2023-12-07T10:41:51;100599.75;;;0.94;100.00
29569;BME280;16501;51.462;14.346;2023-12-07T10:44:17;100602.47;;;1.02;100.00
29569;BME280;16501;51.462;14.346;2023-12-07T10:46:44;100599.78;;;0.84;100.00
29569;BME280;16501;51.462;14.346;2023-12-07T10:49:15;100603.53;;;1.37;100.00
29569;BME280;16501;51.462;14.346;2023-12-07T10:51:56;100601.91;;;1.43;100.00
29569;BME280;16501;51.462;14.346;2023-12-07T10:54:35;100594.09;;;1.23;100.00
29569;BME280;16501;51.462;14.346;2023-12-07T10:57:05;100601.22;;;1.24;100.00
29569;BME280;16501;51.462;14.346;2023-12-07T10:59:32;100598.84;;;1.23;100.00
29569;BME280;16501;51.462;14.346;2023-12-07T11:02:00;100594.53;;;1.18;100.00
29569;BME280;16501;51.462;14.346;2023-12-07T11:04:26;100572.09;;;1.02;100.00
29569;BME280;16501;51.462;14.346;2023-12-07T11:06:54;100591.38;;;1.16;100.00
29569;BME280;16501;51.462;14.346;2023-12-07T11:09:25;100590.25;;;1.06;100.00
29569;BME280;16501;51.462;14.346;2023-12-07T11:12:13;100585.84;;;1.16;100.00
29569;BME280;16501;51.462;14.346;2023-12-07T11:14:42;100587.84;;;1.12;100.00
29569;BME280;16501;51.462;14.346;2023-12-07T11:17:07;100579.22;;;0.92;100.00
29569;BME280;16501;51.462;14.346;2023-12-07T11:21:59;100598.09;;;1.11;100.00
29569;BME280;16501;51.462;14.346;2023-12-07T11:24:25;100583.53;;;1.04;100.00
29569;BME280;16501;51.462;14.346;2023-12-07T11:26:56;100600.47;;;1.13;100.00
29569;BME280;16501;51.462;14.346;2023-12-07T11:29:24;100583.53;;;1.04;100.00
29569;BME280;16501;51.462;14.346;2023-12-07T11:31:49;100578.41;;;1.02;100.00
29569;BME280;16501;51.462;14.346;2023-12-07T11:34:36;100567.34;;;1.02;100.00
29569;BME280;16501;51.462;14.346;2023-12-07T11:37:03;100582.75;;;1.07;100.00
29569;BME280;16501;51.462;14.346;2023-12-07T11:39:39;100567.78;;;0.97;100.00
29569;BME280;16501;51.462;14.346;2023-12-07T11:42:11;100585.09;;;1.12;100.00
29569;BME280;16501;51.462;14.346;2023-12-07T11:44:38;100580.78;;;1.04;100.00
29569;BME280;16501;51.462;14.346;2023-12-07T11:47:05;100592.16;;;1.13;100.00
29569;BME280;16501;51.462;14.346;2023-12-07T11:49:31;100581.16;;;1.06;100.00
29569;BME280;16501;51.462;14.346;2023-12-07T11:51:57;100586.25;;;1.15;100.00
29569;BME280;16501;51.462;14.346;2023-12-07T11:54:23;100584.72;;;1.10;100.00
29569;BME280;16501;51.462;14.346;2023-12-07T11:56:55;100578.34;;;1.13;100.00
29569;BME280;16501;51.462;14.346;2023-12-07T11:59:22;100587.03;;;1.19;100.00
29569;BME280;16501;51.462;14.346;2023-12-07T12:01:48;100586.22;;;1.22;100.00
29569;BME280;16501;51.462;14.346;2023-12-07T12:04:15;100559.03;;;1.13;100.00
29569;BME280;16501;51.462;14.346;2023-12-07T12:06:40;100570.06;;;1.17;100.00
29569;BME280;16501;51.462;14.346;2023-12-07T12:09:05;100567.31;;;1.13;100.00
29569;BME280;16501;51.462;14.346;2023-12-07T12:11:30;100564.56;;;1.09;100.00
29569;BME280;16501;51.462;14.346;2023-12-07T12:13:56;100569.66;;;1.18;100.00
29569;BME280;16501;51.462;14.346;2023-12-07T12:16:22;100557.47;;;1.12;100.00
29569;BME280;16501;51.462;14.346;2023-12-07T12:18:48;100563.78;;;1.09;100.00
29569;BME280;16501;51.462;14.346;2023-12-07T12:21:13;100570.06;;;1.20;100.00
29569;BME280;16501;51.462;14.346;2023-12-07T12:23:39;100574.38;;;1.21;100.00
29569;BME280;16501;51.462;14.346;2023-12-07T12:26:06;100574.38;;;1.21;100.00
29569;BME280;16501;51.462;14.346;2023-12-07T12:28:32;100551.56;;;1.10;100.00
29569;BME280;16501;51.462;14.346;2023-12-07T12:30:58;100546.84;;;1.03;100.00
29569;BME280;16501;51.462;14.346;2023-12-07T12:33:23;100548.41;;;1.08;100.00
29569;BME280;16501;51.462;14.346;2023-12-07T12:36:02;100574.78;;;1.20;100.00
29569;BME280;16501;51.462;14.346;2023-12-07T12:38:27;100551.97;;;1.05;100.00